Airfield :
LOGIN :

Register | Disclaimer

   EN    FR    IT 

 










Legend :    VFR   Marginal VFR   IFR   Intensive IFR   Very Intensive IFR
Visi :
Ceiling :
>= 8 km
>= 3000ft
5 to 8 km
1000 to 3000 ft
1500m to 5 km
500 to 1000 ft
800 to 1500m
200 to 500 ft
< 800m
< 200 ft
Symbols :   Thunderstorms  Fog  Heavy snow  Heavy precipitations  Wind > 20 kt
SIGMETs :     Misc.  Thunderstorms  Icing  Turbulence  Mountain Waves  Volcanic Ashes






- Airport Elevation : 235 ft
- IATA code : BZG


EPBY - Bydgoszcz

CURRENT METAR :
  • 260030Z 11006KT CAVOK 19/16 Q1012

EXPIRED METARs :
  • 260000Z 07006KT CAVOK 19/16 Q1012
  • 252330Z 07006KT CAVOK 19/16 Q1012
  • 252300Z 08006KT CAVOK 19/16 Q1012
  • 252230Z 10006KT CAVOK 19/16 Q1013
  • 252200Z 09007KT CAVOK 20/16 Q1013

TAF TAF EPBY
Valid from the 26 at 00:00 until the 27 at 00:00 UTC


252330Z 2600/2624 08008KT CAVOK
TEMPO 2610/2618 -SHRA SCT040CB
PROB40
TEMPO 2612/2618 VRB15G30KT 3000 TSRA BKN020CB
BECMG 2618/2620 VRB02KT
PROB30
TEMPO 2621/2624 0700 FG



MET'MAP, your aeronautical weather chart ! - Copyright ORBIFLY December 2007 - Disclaimer

ORBIFLY MET'MAP TEAM :

Programming & Development : Alexandra Zaïnal
Concept & original design : Baudouin d'Aumeries
Assistance for programming : Marc-Olivier Méhu
Technical & hardware support : Manuel Goepfert

Contact : metmap@orbifly.com




SOURCES & CREDITS :

   NOAA